Latest Weather Observations for Broome Port

IDW60801

Issued at 10:03 pm WST Tuesday 12 December 2017 (issued every 30 minutes, with the page automatically refreshed every 10 minutes)

About weather observations | Map of weather stations | Latest weather observations for WA | Other Formats
Station Details ID: 003102 Name: BROOME NTC AWS Lat: -18.00 Lon: 122.22 Height: 0.0 m
Data from the previous 72 hours. | See also: Recent months for locations in Western Australia
Date/Time
WST
Temp
°C
App
Temp
°C
Dew
Point
°C
Rel
Hum
%
Delta-T
°C
Wind Press
QNH
hPa
Press
MSL
hPa
Rain since
9am
mm
Dir  Spd
km/h
Gust
km/h
Spd
kts
Gust
kts
12/10:00pm 30.4 - - - - W 22 28 12 15 1007.9 1007.8 -
12/09:30pm 30.4 - - - - W 22 28 12 15 1008.0 1007.9 -
12/09:00pm 30.3 - - - - W 20 26 11 14 1007.9 1007.8 -
12/08:30pm 30.5 - - - - W 22 28 12 15 1007.8 1007.7 -
12/08:00pm 30.6 - - - - WSW 22 28 12 15 1007.8 1007.7 -
12/07:30pm 30.4 - - - - WSW 26 32 14 17 1007.6 1007.5 -
12/07:00pm 30.3 - - - - W 26 32 14 17 1007.3 1007.2 -
12/06:30pm 30.2 - - - - WSW 30 35 16 19 1007.0 1006.9 -
12/06:00pm 30.1 - - - - W 32 37 17 20 1006.7 1006.6 -
12/05:30pm 30.2 - - - - W 30 35 16 19 1006.8 1006.7 -
12/05:00pm 30.1 - - - - W 28 33 15 18 1006.8 1006.7 -
12/04:30pm 30.0 - - - - W 28 35 15 19 1006.9 1006.8 -
12/04:00pm 30.1 - - - - W 32 37 17 20 1006.8 1006.7 -
12/03:30pm 30.2 - - - - W 30 37 16 20 1006.9 1006.8 -
12/03:00pm 30.2 - - - - W 32 39 17 21 1007.1 1007.0 -
12/02:30pm 30.3 - - - - WSW 32 39 17 21 1007.1 1007.0 -
12/02:00pm 29.9 - - - - W 33 41 18 22 1007.4 1007.3 -
12/01:30pm 30.2 - - - - W 32 39 17 21 1007.6 1007.5 -
12/01:00pm 30.1 - - - - W 33 41 18 22 1008.3 1008.2 -
12/12:30pm 30.3 - - - - W 32 39 17 21 1008.8 1008.7 -
12/12:00pm 30.4 - - - - W 26 35 14 19 1009.1 1009.0 -
12/11:30am 30.2 - - - - W 26 35 14 19 1009.5 1009.4 -
12/11:00am 30.1 - - - - W 26 35 14 19 1009.9 1009.8 -
12/10:30am 30.5 - - - - WSW 26 32 14 17 1010.2 1010.1 -
12/10:00am 30.3 - - - - WSW 24 30 13 16 1010.4 1010.3 -
12/09:30am 30.1 - - - - WSW 22 26 12 14 1010.7 1010.6 -
12/09:00am 30.0 - - - - WSW 22 28 12 15 1010.8 1010.7 -
12/08:30am 29.9 - - - - WSW 26 30 14 16 1010.9 1010.8 -
12/08:00am 30.0 - - - - WSW 26 30 14 16 1010.8 1010.7 -
12/07:30am 29.7 - - - - WSW 26 32 14 17 1010.5 1010.4 -
12/07:00am 29.6 - - - - WSW 24 28 13 15 1010.3 1010.2 -
12/06:30am 29.7 - - - - WSW 24 28 13 15 1010.0 1009.9 -
12/06:00am 29.6 - - - - WSW 24 28 13 15 1009.6 1009.5 -
12/05:30am 29.6 - - - - WSW 24 28 13 15 1009.2 1009.1 -
12/05:00am 29.7 - - - - WSW 22 28 12 15 1008.7 1008.6 -
12/04:30am 29.5 - - - - WSW 24 28 13 15 1008.2 1008.1 -
12/04:00am 29.4 - - - - W 24 30 13 16 1008.0 1007.9 -
12/03:30am 29.8 - - - - WSW 28 32 15 17 1007.8 1007.7 -
12/03:00am 29.7 - - - - W 24 30 13 16 1007.7 1007.6 -
12/02:30am 29.8 - - - - WSW 24 30 13 16 1007.5 1007.4 -
12/02:00am 29.7 - - - - W 24 30 13 16 1007.4 1007.3 -
12/01:30am 29.9 - - - - WSW 26 32 14 17 1007.5 1007.4 -
12/01:00am 30.0 - - - - WSW 26 30 14 16 1007.8 1007.7 -
12/12:30am 30.0 - - - - W 24 28 13 15 1008.0 1007.9 -
12/12:00am 30.0 - - - - W 20 28 11 15 1008.5 1008.4 -
 
Date/Time
WST
Temp
°C
App
Temp
°C
Dew
Point
°C
Rel
Hum
%
Delta-T
°C
Wind Press
QNH
hPa
Press
MSL
hPa
Rain since
9am
mm
Dir  Spd
km/h
Gust
km/h
Spd
kts
Gust
kts
11/11:30pm 30.3 - - - - WSW 22 26 12 14 1008.9 1008.8 -
11/11:00pm 30.4 - - - - WSW 20 24 11 13 1009.2 1009.1 -
11/10:30pm 30.5 - - - - WSW 19 22 10 12 1009.6 1009.5 -
11/10:00pm 30.5 - - - - WSW 20 24 11 13 1009.7 1009.6 -
11/09:30pm 30.6 - - - - WSW 20 22 11 12 1009.8 1009.7 -
11/09:00pm 30.6 - - - - WSW 17 20 9 11 1009.9 1009.8 -
11/08:30pm 30.5 - - - - W 19 22 10 12 1009.7 1009.6 -
11/08:00pm 30.6 - - - - WNW 15 19 8 10 1009.5 1009.4 -
11/07:30pm 30.5 - - - - WNW 15 20 8 11 1009.4 1009.3 -
11/07:00pm 30.6 - - - - WNW 17 20 9 11 1008.8 1008.7 -
11/06:30pm 30.5 - - - - W 20 24 11 13 1008.4 1008.3 -
11/06:00pm 30.6 - - - - WNW 20 26 11 14 1008.0 1007.9 -
11/05:30pm 30.4 - - - - W 20 26 11 14 1007.6 1007.5 -
11/05:00pm 30.3 - - - - W 22 26 12 14 1007.2 1007.1 -
11/04:30pm 30.0 - - - - NNW 13 15 7 8 1007.9 1007.8 -
11/04:00pm 29.5 - - - - NE 26 33 14 18 1008.3 1008.2 -
11/03:42pm 29.1 - - - - N 33 50 18 27 1008.8 1008.7 -
11/03:36pm 31.0 - - - - NNW 26 50 14 27 1008.7 1008.6 -
11/03:30pm 30.9 - - - - WNW 26 33 14 18 1008.3 1008.2 -
11/03:00pm 31.0 - - - - W 32 35 17 19 1007.3 1007.2 -
11/02:30pm 31.1 - - - - W 26 32 14 17 1007.9 1007.8 -
11/02:00pm 30.9 - - - - WSW 28 32 15 17 1007.7 1007.6 -
11/01:30pm 31.0 - - - - WSW 28 32 15 17 1007.8 1007.7 -
11/01:00pm 31.3 - - - - WSW 22 28 12 15 1008.5 1008.4 -
11/12:30pm 31.4 - - - - WSW 22 24 12 13 1008.8 1008.7 -
11/12:00pm 31.9 - - - - WSW 11 15 6 8 1009.2 1009.1 -
11/11:30am 31.4 - - - - SW 11 13 6 7 1009.5 1009.4 -
11/11:00am 31.5 - - - - SSW 6 9 3 5 1010.1 1010.0 -
11/10:30am 31.4 - - - - SW 7 9 4 5 1010.8 1010.7 -
11/10:00am 31.0 - - - - SW 6 9 3 5 1011.6 1011.5 -
11/09:30am 30.1 - - - - SW 7 9 4 5 1011.9 1011.8 -
11/09:00am 29.7 - - - - SSE 15 20 8 11 1012.1 1012.0 -
11/08:30am 29.4 - - - - SSE 17 22 9 12 1012.0 1011.9 -
11/08:00am 29.3 - - - - S 15 19 8 10 1011.6 1011.5 -
11/07:30am 29.6 - - - - SW 17 19 9 10 1011.0 1010.9 -
11/07:00am 29.6 - - - - SSW 15 17 8 9 1011.0 1010.9 -
11/06:30am 29.5 - - - - SSW 15 19 8 10 1010.6 1010.5 -
11/06:00am 29.4 - - - - SW 15 19 8 10 1010.2 1010.1 -
11/05:30am 29.4 - - - - SW 17 22 9 12 1009.8 1009.7 -
11/05:00am 29.3 - - - - SW 15 19 8 10 1009.6 1009.5 -
11/04:30am 29.7 - - - - SW 13 17 7 9 1009.3 1009.2 -
11/04:00am 29.5 - - - - SW 15 20 8 11 1008.9 1008.8 -
11/03:30am 29.8 - - - - WSW 13 15 7 8 1008.9 1008.8 -
11/03:00am 29.8 - - - - WSW 13 17 7 9 1008.8 1008.7 -
11/02:30am 29.8 - - - - WSW 13 17 7 9 1008.6 1008.5 -
11/02:00am 29.9 - - - - WSW 13 17 7 9 1008.6 1008.5 -
11/01:30am 29.7 - - - - WSW 15 19 8 10 1008.4 1008.3 -
11/01:00am 29.7 - - - - WSW 15 17 8 9 1008.4 1008.3 -
11/12:30am 29.9 - - - - WSW 15 19 8 10 1008.7 1008.6 -
11/12:00am 30.0 - - - - WSW 15 17 8 9 1009.1 1009.0 -
 
Date/Time
WST
Temp
°C
App
Temp
°C
Dew
Point
°C
Rel
Hum
%
Delta-T
°C
Wind Press
QNH
hPa
Press
MSL
hPa
Rain since
9am
mm
Dir  Spd
km/h
Gust
km/h
Spd
kts
Gust
kts
10/11:30pm 29.9 - - - - WSW 11 15 6 8 1009.6 1009.5 -
10/11:00pm 30.1 - - - - W 15 19 8 10 1010.0 1009.9 -
10/10:30pm 30.0 - - - - W 13 17 7 9 1010.4 1010.3 -
10/10:00pm 30.1 - - - - W 13 17 7 9 1010.6 1010.5 -
10/09:30pm 30.1 - - - - W 13 15 7 8 1010.7 1010.6 -
10/09:00pm 30.1 - - - - W 15 19 8 10 1010.3 1010.2 -
10/08:30pm 30.0 - - - - WNW 13 19 7 10 1010.5 1010.4 -
10/08:00pm 30.1 - - - - WNW 15 17 8 9 1010.3 1010.2 -
10/07:30pm 30.2 - - - - WNW 15 19 8 10 1009.9 1009.8 -
10/07:00pm 30.2 - - - - WNW 17 20 9 11 1009.3 1009.2 -
10/06:30pm 30.4 - - - - WNW 20 24 11 13 1008.8 1008.7 -
10/06:00pm 30.4 - - - - WNW 22 28 12 15 1008.2 1008.1 -
10/05:30pm 30.6 - - - - NW 26 32 14 17 1007.9 1007.8 -
10/05:00pm 30.6 - - - - NW 28 35 15 19 1007.5 1007.4 -
10/04:30pm 30.7 - - - - NW 32 37 17 20 1007.4 1007.3 -
10/04:00pm 31.2 - - - - NW 33 37 18 20 1007.4 1007.3 -
10/03:30pm 32.6 - - - - NW 30 33 16 18 1007.3 1007.2 -
10/03:00pm 33.8 - - - - WNW 24 28 13 15 1007.2 1007.1 -
10/02:30pm 33.9 - - - - WNW 19 20 10 11 1007.3 1007.2 -
10/02:00pm 33.0 - - - - W 13 20 7 11 1007.6 1007.5 -
10/01:30pm 33.5 - - - - WSW 9 11 5 6 1008.0 1007.9 -
10/01:00pm 31.7 - - - - SW 7 9 4 5 1008.3 1008.2 -
10/12:30pm 31.4 - - - - CALM 0 2 0 1 1008.6 1008.5 -
10/12:00pm 29.9 - - - - ENE 4 6 2 3 1009.0 1008.9 -
10/11:30am 29.0 - - - - SSE 2 6 1 3 1009.2 1009.1 -
10/11:00am 28.1 - - - - SSE 4 7 2 4 1009.6 1009.5 -
10/10:30am 27.3 - - - - ESE 11 15 6 8 1009.9 1009.8 -
10/10:00am 26.8 - - - - ESE 15 19 8 10 1010.0 1009.9 -
10/09:30am 25.8 - - - - ESE 20 24 11 13 1010.2 1010.1 -
10/09:00am 25.3 - - - - ESE 19 22 10 12 1010.4 1010.3 -
10/08:30am 25.1 - - - - ESE 26 32 14 17 1010.2 1010.1 -
10/08:00am 25.2 - - - - E 30 35 16 19 1010.3 1010.2 -
10/07:30am 24.7 - - - - E 26 33 14 18 1010.3 1010.2 -
10/07:00am 24.8 - - - - E 39 46 21 25 1010.4 1010.3 -
10/06:30am 24.5 - - - - E 52 61 28 33 1010.6 1010.5 -
10/06:00am 25.2 - - - - E 46 56 25 30 1010.8 1010.7 -
10/05:30am 26.5 - - - - E 43 52 23 28 1010.4 1010.3 -
10/05:22am 26.3 - - - - E 50 63 27 34 1010.3 1010.2 -
10/05:00am 26.6 - - - - ESE 65 80 35 43 1010.0 1009.9 -
10/04:37am 28.1 - - - - ESE 37 74 20 40 1009.5 1009.4 -
10/04:35am 29.3 - - - - SE 30 52 16 28 1009.6 1009.5 -
10/04:30am 29.3 - - - - SE 20 28 11 15 1009.1 1009.0 -
10/04:00am 29.1 - - - - SSW 20 22 11 12 1007.7 1007.6 -
10/03:30am 29.4 - - - - S 30 33 16 18 1008.0 1007.9 -
10/03:00am 29.9 - - - - SW 22 26 12 14 1008.1 1008.0 -
10/02:30am 29.7 - - - - SW 22 28 12 15 1008.0 1007.9 -
10/02:00am 29.8 - - - - WSW 24 28 13 15 1007.7 1007.6 -
10/01:30am 29.6 - - - - W 22 28 12 15 1007.3 1007.2 -
10/01:00am 29.5 - - - - WNW 26 33 14 18 1007.0 1006.9 -
10/12:30am 29.7 - - - - NW 24 30 13 16 1007.6 1007.5 -
10/12:00am 29.7 - - - - NW 24 30 13 16 1007.7 1007.6 -
 
Date/Time
WST
Temp
°C
App
Temp
°C
Dew
Point
°C
Rel
Hum
%
Delta-T
°C
Wind Press
QNH
hPa
Press
MSL
hPa
Rain since
9am
mm
Dir  Spd
km/h
Gust
km/h
Spd
kts
Gust
kts
09/11:30pm 29.7 - - - - NW 20 28 11 15 1008.1 1008.0 -
09/11:00pm 29.7 - - - - NW 24 28 13 15 1007.9 1007.8 -
09/10:30pm 29.8 - - - - NW 22 28 12 15 1007.9 1007.8 -

Other Formats:

Comma delimited format used in spreadsheet applications
http://www.bom.gov.au/fwo/IDW60801/IDW60801.95202.axf

JavaScript Object Notation format (JSON) in row-major order
http://www.bom.gov.au/fwo/IDW60801/IDW60801.95202.json